createdAt,value
2017-01-13T00:00:34.780Z,58.43
2017-01-13T00:02:47.407Z,58.44
2017-01-13T00:05:00.140Z,58.44
2017-01-13T00:07:08.061Z,58.48
2017-01-13T00:09:20.921Z,58.47
2017-01-13T00:11:35.244Z,58.42
2017-01-13T00:13:47.452Z,58.35
2017-01-13T00:16:00.749Z,58.33
2017-01-13T00:18:13.440Z,58.35
2017-01-13T00:20:26.759Z,58.35
2017-01-13T00:22:39.263Z,58.46
2017-01-13T00:24:47.419Z,58.6
2017-01-13T00:27:00.905Z,58.69
2017-01-13T00:29:13.216Z,58.67
2017-01-13T00:31:25.646Z,58.67
2017-01-13T00:33:37.933Z,58.63
2017-01-13T00:35:50.192Z,58.66
2017-01-13T00:38:02.389Z,58.72
2017-01-13T00:40:14.902Z,58.8
2017-01-13T00:42:27.277Z,58.85
2017-01-13T00:44:39.510Z,58.8
2017-01-13T00:46:51.696Z,58.69
2017-01-13T00:48:58.997Z,58.64
2017-01-13T00:51:11.404Z,58.64
2017-01-13T00:53:23.700Z,58.71
2017-01-13T00:55:35.950Z,58.7
2017-01-13T00:57:48.192Z,58.71
2017-01-13T00:59:58.817Z,58.71
2017-01-13T01:02:11.200Z,58.65
2017-01-13T01:04:23.674Z,58.7
2017-01-13T01:06:36.381Z,58.7
2017-01-13T01:08:48.839Z,58.79
2017-01-13T01:11:01.403Z,58.82
2017-01-13T01:13:14.069Z,58.87
2017-01-13T01:15:26.501Z,58.99
2017-01-13T01:17:33.900Z,59.05
2017-01-13T01:19:46.072Z,59.05
2017-01-13T01:21:53.324Z,59.01
2017-01-13T01:24:05.642Z,58.96
2017-01-13T01:26:17.898Z,58.89
2017-01-13T01:28:30.055Z,58.76
2017-01-13T01:30:42.249Z,58.68
2017-01-13T01:32:54.642Z,58.5
2017-01-13T01:35:01.918Z,58.61
2017-01-13T01:37:14.269Z,58.75
2017-01-13T01:39:26.742Z,58.78
2017-01-13T01:41:39.144Z,58.75
2017-01-13T01:43:51.342Z,58.78
2017-01-13T01:46:03.936Z,58.76
2017-01-13T01:48:16.383Z,58.72
2017-01-13T01:50:28.594Z,58.67
2017-01-13T01:52:40.898Z,58.64
2017-01-13T01:54:53.261Z,58.59
2017-01-13T01:57:03.808Z,58.62
2017-01-13T01:59:16.109Z,58.63
2017-01-13T02:01:23.414Z,58.68
2017-01-13T02:03:35.737Z,58.68
2017-01-13T02:05:43.006Z,58.7
2017-01-13T02:07:56.209Z,58.72
2017-01-13T02:10:08.600Z,58.78
2017-01-13T02:12:20.740Z,58.82
2017-01-13T02:14:28.110Z,58.84
2017-01-13T02:16:40.741Z,58.82
2017-01-13T02:18:51.268Z,58.85
2017-01-13T02:21:03.994Z,58.88
2017-01-13T02:23:16.324Z,58.9
2017-01-13T02:25:28.667Z,58.91
2017-01-13T02:27:41.096Z,58.95
2017-01-13T02:29:48.396Z,58.97
2017-01-13T02:32:00.610Z,59.01
2017-01-13T02:34:12.845Z,59.05
2017-01-13T02:36:25.178Z,59.05
2017-01-13T02:38:37.586Z,59.09
2017-01-13T02:40:49.867Z,59.11
2017-01-13T02:43:02.388Z,59.12
2017-01-13T02:45:14.501Z,59.14
2017-01-13T02:47:26.733Z,59.19
2017-01-13T02:49:34.154Z,59.19
2017-01-13T02:51:43.726Z,59.15
2017-01-13T02:53:58.593Z,59.18
2017-01-13T02:56:11.001Z,59.25
2017-01-13T02:58:18.459Z,59.26
2017-01-13T03:00:30.826Z,59.27
2017-01-13T03:02:42.997Z,59.28
2017-01-13T03:04:55.337Z,59.29
2017-01-13T03:07:02.940Z,59.3
2017-01-13T03:09:15.170Z,59.32
2017-01-13T03:11:22.574Z,59.29
2017-01-13T03:13:34.769Z,59.32
2017-01-13T03:15:46.974Z,59.34
2017-01-13T03:17:59.348Z,59.38
2017-01-13T03:20:11.783Z,59.38
2017-01-13T03:22:19.089Z,59.36
2017-01-13T03:24:31.379Z,59.31
2017-01-13T03:26:43.608Z,59.33
2017-01-13T03:28:56.234Z,59.39
2017-01-13T03:31:08.669Z,59.45
2017-01-13T03:33:20.963Z,59.53
2017-01-13T03:35:33.243Z,59.6
2017-01-13T03:37:45.484Z,59.64
2017-01-13T03:39:57.777Z,59.67
2017-01-13T03:42:09.990Z,59.66
2017-01-13T03:44:22.313Z,59.67
2017-01-13T03:46:34.471Z,59.66
2017-01-13T03:48:46.896Z,59.67
2017-01-13T03:50:59.174Z,59.66
2017-01-13T03:53:11.522Z,59.65
2017-01-13T03:55:23.933Z,59.67
2017-01-13T03:57:36.179Z,59.64
2017-01-13T03:59:48.524Z,59.66
2017-01-13T04:01:56.019Z,59.66
2017-01-13T04:04:03.777Z,59.74
2017-01-13T04:06:16.311Z,59.75
2017-01-13T04:08:28.524Z,59.77
2017-01-13T04:10:40.808Z,59.73
2017-01-13T04:12:53.033Z,59.79
2017-01-13T04:15:05.268Z,59.79
2017-01-13T04:17:17.743Z,59.81
2017-01-13T04:19:30.111Z,59.8
2017-01-13T04:21:42.418Z,59.76
2017-01-13T04:23:54.639Z,59.79
2017-01-13T04:26:06.959Z,59.79
2017-01-13T04:28:19.376Z,59.77
2017-01-13T04:30:31.621Z,59.75
2017-01-13T04:32:43.835Z,59.75
2017-01-13T04:34:46.100Z,59.72
2017-01-13T04:36:53.824Z,59.75
2017-01-13T04:39:06.261Z,59.72
2017-01-13T04:41:18.670Z,59.72
2017-01-13T04:43:30.976Z,59.67
2017-01-13T04:45:43.321Z,59.61
2017-01-13T04:47:55.543Z,59.65
2017-01-13T04:50:08.021Z,59.65
2017-01-13T04:52:20.356Z,59.67
2017-01-13T04:54:27.621Z,59.65
2017-01-13T04:56:40.263Z,59.63
2017-01-13T04:58:52.459Z,59.62
2017-01-13T05:01:04.731Z,59.58
2017-01-13T05:03:16.884Z,59.58
2017-01-13T05:05:29.097Z,59.56
2017-01-13T05:07:36.489Z,59.56
2017-01-13T05:09:43.714Z,59.54
2017-01-13T05:11:56.315Z,59.49
2017-01-13T05:14:08.753Z,59.5
2017-01-13T05:18:32.844Z,59.5
2017-01-13T05:20:45.159Z,59.5
2017-01-13T05:22:57.637Z,59.48
2017-01-13T05:25:09.899Z,59.42
2017-01-13T05:27:22.288Z,59.41
2017-01-13T05:29:34.919Z,59.41
2017-01-13T05:31:47.286Z,59.4
2017-01-13T05:33:59.669Z,59.42
2017-01-13T05:36:06.934Z,59.41
2017-01-13T05:38:19.215Z,59.4
2017-01-13T05:40:29.821Z,59.39
2017-01-13T05:42:42.238Z,59.38
2017-01-13T05:44:55.000Z,59.36
2017-01-13T05:47:07.534Z,59.35
2017-01-13T05:49:19.745Z,59.38
2017-01-13T05:51:31.985Z,59.4
2017-01-13T05:53:44.604Z,59.37
2017-01-13T05:55:57.005Z,59.35
2017-01-13T05:58:04.280Z,59.36
2017-01-13T06:00:16.625Z,59.33
2017-01-13T06:02:28.954Z,59.34
2017-01-13T06:04:36.487Z,59.35
2017-01-13T06:06:48.828Z,59.35
2017-01-13T06:09:01.084Z,59.36
2017-01-13T06:11:13.308Z,59.35
2017-01-13T06:13:25.537Z,59.29
2017-01-13T06:15:38.070Z,59.33
2017-01-13T06:17:45.585Z,59.31
2017-01-13T06:19:58.091Z,59.28
2017-01-13T06:22:10.618Z,59.26
2017-01-13T06:24:23.046Z,59.26
2017-01-13T06:26:30.388Z,59.27
2017-01-13T06:28:42.620Z,59.27
2017-01-13T06:30:54.915Z,59.27
2017-01-13T06:33:07.231Z,59.26
2017-01-13T06:35:19.575Z,59.29
2017-01-13T06:37:31.848Z,59.3
2017-01-13T06:39:44.016Z,59.32
2017-01-13T06:41:56.457Z,59.34
2017-01-13T06:44:03.957Z,59.33
2017-01-13T06:46:06.494Z,59.28
2017-01-13T06:48:18.798Z,59.31
2017-01-13T06:50:31.055Z,59.35
2017-01-13T06:52:43.493Z,59.34
2017-01-13T06:54:57.416Z,59.31
2017-01-13T06:57:09.983Z,59.32
2017-01-13T06:59:22.191Z,59.32
2017-01-13T07:01:29.614Z,59.27
2017-01-13T07:03:41.897Z,59.2
2017-01-13T07:05:49.368Z,59.21
2017-01-13T07:07:56.829Z,59.17
2017-01-13T07:10:09.093Z,59.14
2017-01-13T07:12:21.508Z,59.11
2017-01-13T07:14:34.013Z,59.09
2017-01-13T07:16:46.474Z,59.06
2017-01-13T07:18:53.866Z,59.03
2017-01-13T07:21:06.137Z,59.07
2017-01-13T07:23:18.581Z,59.07
2017-01-13T07:25:30.870Z,59.05
2017-01-13T07:27:43.037Z,59.04
2017-01-13T07:29:55.619Z,58.97
2017-01-13T07:32:08.228Z,58.91
2017-01-13T07:34:20.469Z,58.88
2017-01-13T07:36:32.684Z,58.83
2017-01-13T07:38:45.862Z,58.81
2017-01-13T07:40:58.644Z,58.76
2017-01-13T07:43:11.151Z,58.7
2017-01-13T07:45:23.621Z,58.66
2017-01-13T07:47:36.067Z,58.59
2017-01-13T07:49:50.863Z,58.44
2017-01-13T07:52:03.436Z,58.33
2017-01-13T07:54:15.866Z,58.21
2017-01-13T07:56:28.094Z,58.15
2017-01-13T07:58:40.641Z,58.22
2017-01-13T08:00:52.847Z,58.35
2017-01-13T08:03:05.520Z,58.39
2017-01-13T08:05:18.240Z,58.16
2017-01-13T08:07:30.729Z,58.02
2017-01-13T08:09:42.978Z,58.05
2017-01-13T08:11:55.950Z,58.15
2017-01-13T08:14:08.975Z,58.07
2017-01-13T08:16:22.089Z,57.97
2017-01-13T08:18:35.131Z,57.9
2017-01-13T08:20:48.080Z,57.79
2017-01-13T08:22:56.311Z,57.67
2017-01-13T08:25:11.473Z,57.4
2017-01-13T08:27:23.738Z,57.19
2017-01-13T08:29:36.157Z,57.09
2017-01-13T08:31:43.486Z,56.9
2017-01-13T08:33:56.087Z,56.97
2017-01-13T08:36:08.839Z,56.94
2017-01-13T08:38:21.471Z,56.83
2017-01-13T08:40:28.971Z,56.76
2017-01-13T08:42:41.317Z,56.77
2017-01-13T08:44:48.553Z,56.82
2017-01-13T08:47:00.787Z,56.81
2017-01-13T08:49:13.358Z,56.72
2017-01-13T08:51:26.295Z,56.75
2017-01-13T08:53:38.734Z,56.6
2017-01-13T08:55:46.971Z,56.54
2017-01-13T08:57:59.843Z,56.37
2017-01-13T09:02:25.549Z,56.13
2017-01-13T09:04:28.231Z,56.09
2017-01-13T09:06:40.621Z,55.96
2017-01-13T09:08:53.444Z,55.75
2017-01-13T09:11:00.880Z,55.52
2017-01-13T09:13:13.754Z,55.45
2017-01-13T09:15:26.193Z,55.42
2017-01-13T09:17:23.749Z,55.28
2017-01-13T09:20:13.597Z,55.1
2017-01-13T09:22:38.465Z,54.8
2017-01-13T09:24:53.947Z,54.43
2017-01-13T09:27:06.282Z,54.25
2017-01-13T09:29:13.648Z,54.26
2017-01-13T09:31:26.046Z,54.3
2017-01-13T09:33:38.324Z,54.3
2017-01-13T09:35:50.728Z,54.24
2017-01-13T09:38:02.943Z,54.22
2017-01-13T09:40:10.343Z,54.14
2017-01-13T09:42:22.967Z,53.97
2017-01-13T09:44:35.247Z,53.82
2017-01-13T09:46:42.740Z,53.79
2017-01-13T09:48:50.211Z,53.87
2017-01-13T09:51:03.510Z,53.75
2017-01-13T09:53:15.856Z,53.94
2017-01-13T09:55:28.160Z,54.21
2017-01-13T09:57:40.681Z,54.53
2017-01-13T09:59:53.146Z,54.49
2017-01-13T10:02:05.782Z,54.04
2017-01-13T10:04:18.089Z,53.71
2017-01-13T10:06:25.890Z,53.44
2017-01-13T10:08:33.717Z,53.37
2017-01-13T10:10:46.471Z,53.35
2017-01-13T10:12:59.021Z,53.43
2017-01-13T10:15:11.854Z,53.46
2017-01-13T10:17:24.820Z,53.07
2017-01-13T10:19:37.487Z,53.13
2017-01-13T10:21:50.656Z,53.22
2017-01-13T10:24:03.390Z,53.36
2017-01-13T10:26:10.798Z,53.4
2017-01-13T10:28:18.382Z,53.4
2017-01-13T10:30:32.327Z,53.15
2017-01-13T10:32:44.793Z,52.9
2017-01-13T10:34:57.246Z,53.07
2017-01-13T10:37:09.683Z,53.07
2017-01-13T10:39:22.060Z,52.89
2017-01-13T10:41:34.602Z,52.57
2017-01-13T10:43:46.837Z,52.55
2017-01-13T10:45:54.367Z,52.5
2017-01-13T10:48:06.775Z,52.56
2017-01-13T10:50:19.306Z,52.63
2017-01-13T10:52:34.446Z,52.28
2017-01-13T10:54:47.481Z,52.14
2017-01-13T10:56:55.138Z,52.19
2017-01-13T10:59:07.460Z,52.11
2017-01-13T11:01:14.965Z,51.89
2017-01-13T11:03:27.463Z,51.61
2017-01-13T11:05:39.920Z,51.29
2017-01-13T11:07:52.290Z,51.31
2017-01-13T11:10:04.917Z,51.45
2017-01-13T11:12:17.363Z,51.78
2017-01-13T11:14:29.696Z,51.8
2017-01-13T11:16:42.727Z,51.7
2017-01-13T11:18:55.168Z,51.31
2017-01-13T11:21:07.338Z,51.64
2017-01-13T11:23:21.861Z,51.57
2017-01-13T11:25:29.337Z,51.18
2017-01-13T11:27:41.808Z,51.2
2017-01-13T11:29:54.299Z,51.08
2017-01-13T11:32:06.736Z,51.34
2017-01-13T11:34:14.668Z,51.63
2017-01-13T11:36:27.816Z,51.78
2017-01-13T11:38:40.798Z,51.38
2017-01-13T11:40:53.751Z,51.84
2017-01-13T11:43:06.798Z,51.92
2017-01-13T11:45:14.251Z,51.47
2017-01-13T11:47:26.804Z,51.25
2017-01-13T11:49:39.258Z,51.47
2017-01-13T11:51:46.961Z,52.06
2017-01-13T11:53:59.272Z,52.59
2017-01-13T11:56:06.749Z,53.01
2017-01-13T11:58:14.237Z,53.26
2017-01-13T12:00:26.772Z,53.37
2017-01-13T12:02:34.513Z,53.48
2017-01-13T12:04:47.566Z,53.54
2017-01-13T12:06:54.842Z,53.41
2017-01-13T12:09:02.354Z,53.55
2017-01-13T12:11:14.791Z,53.46
2017-01-13T12:13:27.735Z,53.36
2017-01-13T12:15:40.544Z,53.16
2017-01-13T12:17:53.546Z,52.95
2017-01-13T12:20:01.226Z,52.75
2017-01-13T12:22:13.559Z,52.68
2017-01-13T12:24:25.823Z,52.68
2017-01-13T12:26:38.369Z,52.79
2017-01-13T12:28:50.775Z,52.83
2017-01-13T12:31:03.409Z,52.98
2017-01-13T12:33:15.788Z,53.26
2017-01-13T12:35:28.312Z,53.32
2017-01-13T12:37:40.550Z,53.24
2017-01-13T12:39:52.913Z,53.23
2017-01-13T12:42:05.444Z,53.28
2017-01-13T12:44:12.937Z,53.25
2017-01-13T12:46:20.355Z,53.23
2017-01-13T12:48:32.729Z,53.37
2017-01-13T12:50:40.307Z,53.35
2017-01-13T12:52:52.684Z,53.44
2017-01-13T12:55:05.214Z,53.47
2017-01-13T12:57:17.527Z,53.44
2017-01-13T12:59:24.830Z,53.63
2017-01-13T13:01:37.023Z,53.86
2017-01-13T13:03:49.311Z,53.98
2017-01-13T13:06:01.512Z,53.97
2017-01-13T13:08:13.904Z,53.94
2017-01-13T13:10:26.203Z,53.94
2017-01-13T13:12:38.584Z,54.04
2017-01-13T13:14:50.877Z,54.06
2017-01-13T13:16:58.863Z,53.98
2017-01-13T13:19:07.024Z,53.95
2017-01-13T13:21:19.331Z,54.02
2017-01-13T13:23:32.282Z,53.81
2017-01-13T13:25:39.853Z,53.8
2017-01-13T13:27:52.141Z,54.05
2017-01-13T13:29:59.622Z,54.27
2017-01-13T13:32:07.699Z,54.28
2017-01-13T13:34:21.788Z,54
2017-01-13T13:36:34.295Z,53.72
2017-01-13T13:38:46.660Z,53.63
2017-01-13T13:40:58.982Z,53.63
2017-01-13T13:43:06.202Z,53.58
2017-01-13T13:45:20.699Z,53.54
2017-01-13T13:47:33.286Z,53.41
2017-01-13T13:49:46.817Z,53.16
2017-01-13T13:51:54.690Z,53.04
2017-01-13T13:54:07.988Z,53.19
2017-01-13T13:56:16.196Z,53.4
2017-01-13T13:58:28.497Z,53.57
2017-01-13T14:00:37.300Z,53.68
2017-01-13T14:02:50.446Z,53.52
2017-01-13T14:05:03.369Z,53.35
2017-01-13T14:07:11.514Z,53.3
2017-01-13T14:09:24.899Z,53.37
2017-01-13T14:11:32.426Z,53.48
2017-01-13T14:13:45.537Z,53.69
2017-01-13T14:15:58.428Z,53.98
2017-01-13T14:18:11.617Z,54.26
2017-01-13T14:20:24.430Z,54.57
2017-01-13T14:22:37.051Z,54.81
2017-01-13T14:24:39.766Z,54.98
2017-01-13T14:26:53.785Z,54.96
2017-01-13T14:29:06.470Z,55.01
2017-01-13T14:31:18.947Z,55.25
2017-01-13T14:33:31.642Z,55.5
2017-01-13T14:35:43.902Z,55.57
2017-01-13T14:37:56.573Z,55.43
2017-01-13T14:40:04.033Z,55.34
2017-01-13T14:42:17.496Z,55.22
2017-01-13T14:44:30.918Z,55.03
2017-01-13T14:46:38.405Z,54.92
2017-01-13T14:48:45.842Z,54.92
2017-01-13T14:50:58.350Z,54.98
2017-01-13T14:53:11.592Z,55.11
2017-01-13T14:55:34.023Z,55.21
2017-01-13T14:57:53.452Z,55.35
2017-01-13T15:00:07.542Z,55.41
2017-01-13T15:02:37.777Z,55.55
2017-01-13T15:04:50.728Z,55.68
2017-01-13T15:07:04.433Z,55.82
2017-01-13T15:09:21.483Z,55.87
2017-01-13T15:11:35.064Z,55.92
2017-01-13T15:13:48.832Z,55.93
2017-01-13T15:16:01.214Z,55.93
2017-01-13T15:20:29.400Z,56.11
2017-01-13T15:22:41.626Z,56.16
2017-01-13T15:24:57.309Z,56.2
2017-01-13T15:27:09.608Z,56.25
2017-01-13T15:29:17.104Z,56.31
2017-01-13T15:31:31.973Z,56.39
2017-01-13T15:33:44.631Z,56.45
2017-01-13T15:35:57.068Z,56.5
2017-01-13T15:37:59.273Z,56.51
2017-01-13T15:40:10.891Z,56.53
2017-01-13T15:42:23.299Z,56.54
2017-01-13T15:44:34.510Z,56.57
2017-01-13T15:46:42.112Z,56.62
2017-01-13T15:48:56.790Z,56.66
2017-01-13T15:51:05.071Z,56.7
2017-01-13T15:53:17.571Z,56.72
2017-01-13T15:55:29.888Z,56.73
2017-01-13T15:57:42.435Z,56.73
2017-01-13T15:59:49.650Z,56.77
2017-01-13T16:02:01.926Z,56.8
2017-01-13T16:04:14.447Z,56.83
2017-01-13T16:06:21.924Z,56.9
2017-01-13T16:08:34.143Z,56.95
2017-01-13T16:10:41.543Z,57
2017-01-13T16:12:48.901Z,57.03
2017-01-13T16:15:01.257Z,57.11
2017-01-13T16:17:13.519Z,57.14
2017-01-13T16:19:26.022Z,57.18
2017-01-13T16:21:33.551Z,57.21
2017-01-13T16:23:47.966Z,57.26
2017-01-13T16:26:03.496Z,57.3
2017-01-13T16:28:18.584Z,57.33
2017-01-13T16:30:25.876Z,57.39
2017-01-13T16:32:28.066Z,57.33
2017-01-13T16:34:40.376Z,57.33
2017-01-13T16:36:52.715Z,57.4
2017-01-13T16:39:00.151Z,57.48
2017-01-13T16:41:12.520Z,57.54
2017-01-13T16:43:19.850Z,57.56
2017-01-13T16:45:32.136Z,57.55
2017-01-13T16:47:44.495Z,57.57
2017-01-13T16:49:51.739Z,57.58
2017-01-13T16:51:59.147Z,57.56
2017-01-13T16:54:06.546Z,57.55
2017-01-13T16:56:18.952Z,57.55
2017-01-13T16:58:31.315Z,57.55
2017-01-13T17:00:38.732Z,57.53
2017-01-13T17:02:51.262Z,57.51
2017-01-13T17:04:58.681Z,57.51
2017-01-13T17:07:10.926Z,57.46
2017-01-13T17:09:23.375Z,57.44
2017-01-13T17:11:34.085Z,57.4
2017-01-13T17:13:46.371Z,57.37
2017-01-13T17:15:58.605Z,57.36
2017-01-13T17:18:04.236Z,57.35
2017-01-13T17:20:16.550Z,57.32
2017-01-13T17:22:29.484Z,57.31
2017-01-13T17:24:31.801Z,57.31
2017-01-13T17:26:43.959Z,57.33
2017-01-13T17:28:56.367Z,57.31
2017-01-13T17:31:08.688Z,57.3
2017-01-13T17:33:16.750Z,57.29
2017-01-13T17:35:31.060Z,57.28
2017-01-13T17:37:50.940Z,57.28
2017-01-13T17:40:05.679Z,57.29
2017-01-13T17:42:19.085Z,57.29
2017-01-13T17:44:31.876Z,57.3
2017-01-13T17:46:44.127Z,57.3
2017-01-13T17:48:51.633Z,57.29
2017-01-13T17:50:58.876Z,57.28
2017-01-13T17:53:11.248Z,57.28
2017-01-13T17:55:23.573Z,57.27
2017-01-13T17:57:37.214Z,57.26
2017-01-13T17:59:51.279Z,57.29
2017-01-13T18:02:03.775Z,57.31
2017-01-13T18:04:16.825Z,57.34
2017-01-13T18:06:24.491Z,57.39
2017-01-13T18:08:38.103Z,57.39
2017-01-13T18:10:45.918Z,57.4
2017-01-13T18:12:56.581Z,57.39
2017-01-13T18:15:03.945Z,57.42
2017-01-13T18:17:16.455Z,57.43
2017-01-13T18:19:29.046Z,57.43
2017-01-13T18:21:41.991Z,57.45
2017-01-13T18:23:55.138Z,57.45
2017-01-13T18:26:07.708Z,57.44
2017-01-13T18:28:20.728Z,57.45
2017-01-13T18:30:33.274Z,57.44
2017-01-13T18:32:46.192Z,57.42
2017-01-13T18:34:59.065Z,57.42
2017-01-13T18:37:06.737Z,57.41
2017-01-13T18:39:19.178Z,57.42
2017-01-13T18:41:26.891Z,57.39
2017-01-13T18:43:34.463Z,57.39
2017-01-13T18:45:47.324Z,57.37
2017-01-13T18:47:59.729Z,57.38
2017-01-13T18:50:12.148Z,57.35
2017-01-13T18:52:19.613Z,57.33
2017-01-13T18:54:27.134Z,57.3
2017-01-13T18:56:42.147Z,57.28
2017-01-13T18:58:49.707Z,57.26
2017-01-13T19:00:57.053Z,57.24
2017-01-13T19:03:05.365Z,57.23
2017-01-13T19:05:13.094Z,57.21
2017-01-13T19:07:26.142Z,57.22
2017-01-13T19:09:41.733Z,57.24
2017-01-13T19:11:50.076Z,57.27
2017-01-13T19:14:02.924Z,57.24
2017-01-13T19:16:15.250Z,57.24
2017-01-13T19:18:27.606Z,57.22
2017-01-13T19:20:36.051Z,57.23
2017-01-13T19:22:50.853Z,57.22
2017-01-13T19:25:03.749Z,57.24
2017-01-13T19:27:16.725Z,57.25
2017-01-13T19:29:29.682Z,57.24
2017-01-13T19:31:43.001Z,57.23
2017-01-13T19:33:50.938Z,57.22
2017-01-13T19:36:03.464Z,57.23
2017-01-13T19:38:15.937Z,57.22
2017-01-13T19:40:23.223Z,57.22
2017-01-13T19:42:35.865Z,57.21
2017-01-13T19:44:48.206Z,57.21
2017-01-13T19:46:55.701Z,57.23
2017-01-13T19:49:08.080Z,57.23
2017-01-13T19:51:20.379Z,57.25
2017-01-13T19:53:27.773Z,57.26
2017-01-13T19:55:40.552Z,57.25
2017-01-13T19:57:50.257Z,57.25
2017-01-13T20:00:05.343Z,57.25
2017-01-13T20:02:19.501Z,57.25
2017-01-13T20:04:33.850Z,57.25
2017-01-13T20:06:46.715Z,57.26
2017-01-13T20:09:01.488Z,57.27
2017-01-13T20:11:08.962Z,57.28
2017-01-13T20:13:16.591Z,57.26
2017-01-13T20:15:34.440Z,57.27
2017-01-13T20:17:42.322Z,57.27
2017-01-13T20:19:55.409Z,57.27
2017-01-13T20:22:07.876Z,57.26
2017-01-13T20:24:20.590Z,57.26
2017-01-13T20:26:33.537Z,57.26
2017-01-13T20:28:47.228Z,57.25
2017-01-13T20:30:59.907Z,57.24
2017-01-13T20:33:15.914Z,57.23
2017-01-13T20:35:30.230Z,57.22
2017-01-13T20:37:37.798Z,57.23
2017-01-13T20:39:50.579Z,57.24
2017-01-13T20:42:03.063Z,57.23
2017-01-13T20:44:15.709Z,57.23
2017-01-13T20:46:24.455Z,57.23
2017-01-13T20:48:27.978Z,57.23
2017-01-13T20:50:41.020Z,57.24
2017-01-13T20:52:57.431Z,57.25
2017-01-13T20:55:09.834Z,57.28
2017-01-13T20:57:22.560Z,57.28
2017-01-13T20:59:35.581Z,57.29
2017-01-13T21:01:50.028Z,57.29
2017-01-13T21:04:03.575Z,57.27
2017-01-13T21:06:16.053Z,57.27
2017-01-13T21:08:28.920Z,57.29
2017-01-13T21:10:41.622Z,57.29
2017-01-13T21:12:54.279Z,57.31
2017-01-13T21:15:07.252Z,57.29
2017-01-13T21:17:20.662Z,57.28
2017-01-13T21:19:28.539Z,57.28
2017-01-13T21:21:41.113Z,57.27
2017-01-13T21:23:48.671Z,57.28
2017-01-13T21:26:01.165Z,57.29
2017-01-13T21:28:13.784Z,57.27
2017-01-13T21:30:26.394Z,57.3
2017-01-13T21:32:38.821Z,57.29
2017-01-13T21:34:51.544Z,57.29
2017-01-13T21:37:04.011Z,57.29
2017-01-13T21:39:16.696Z,57.29
2017-01-13T21:41:29.403Z,57.3
2017-01-13T21:43:42.006Z,57.29
2017-01-13T21:45:54.657Z,57.29
2017-01-13T21:48:07.291Z,57.29
2017-01-13T21:50:20.032Z,57.27
2017-01-13T21:52:35.983Z,57.26
2017-01-13T21:54:56.161Z,57.26
2017-01-13T21:57:13.288Z,57.27
2017-01-13T21:59:23.321Z,57.27
2017-01-13T22:01:38.172Z,57.27
2017-01-13T22:03:57.106Z,57.24
2017-01-13T22:06:11.017Z,57.19
2017-01-13T22:08:31.332Z,57.11
2017-01-13T22:10:44.324Z,57.04
2017-01-13T22:13:02.015Z,57.05
2017-01-13T22:15:11.283Z,57.11
2017-01-13T22:17:25.681Z,57.18
2017-01-13T22:19:40.721Z,57.25
2017-01-13T22:21:53.182Z,57.29
2017-01-13T22:24:08.256Z,57.29
2017-01-13T22:26:23.662Z,57.32
2017-01-13T22:28:38.214Z,57.33
2017-01-13T22:30:54.265Z,57.32
2017-01-13T22:33:09.325Z,57.25
2017-01-13T22:35:25.288Z,57.3
2017-01-13T22:37:40.125Z,57.3
2017-01-13T22:39:55.087Z,57.32
2017-01-13T22:42:08.599Z,57.36
2017-01-13T22:44:21.361Z,57.34
2017-01-13T22:46:35.312Z,57.33
2017-01-13T22:48:48.422Z,57.32
2017-01-13T22:51:03.154Z,57.33
2017-01-13T22:53:11.513Z,57.32
2017-01-13T22:55:25.217Z,57.31
2017-01-13T22:57:38.491Z,57.31
2017-01-13T22:59:52.860Z,57.33
2017-01-13T23:02:06.544Z,57.33
2017-01-13T23:04:19.222Z,57.32
2017-01-13T23:06:32.786Z,57.31
2017-01-13T23:08:49.120Z,57.3
2017-01-13T23:13:18.418Z,57.27
2017-01-13T23:15:26.294Z,57.27
2017-01-13T23:17:39.291Z,57.26
2017-01-13T23:19:52.918Z,57.26
2017-01-13T23:22:06.730Z,57.26
2017-01-13T23:24:22.594Z,57.26
2017-01-13T23:26:38.764Z,57.25
2017-01-13T23:28:55.543Z,57.23
2017-01-13T23:31:09.051Z,57.24
2017-01-13T23:33:24.012Z,57.23
2017-01-13T23:35:36.854Z,57.23
2017-01-13T23:37:51.922Z,57.16
2017-01-13T23:40:11.376Z,57.1
2017-01-13T23:42:22.389Z,57.09
2017-01-13T23:44:36.057Z,57.09
2017-01-13T23:46:43.950Z,57.12
2017-01-13T23:48:58.434Z,57.14
2017-01-13T23:51:14.806Z,57.22
2017-01-13T23:53:22.886Z,57.22
2017-01-13T23:55:31.560Z,57.22
2017-01-13T23:57:48.692Z,57.29
